sensor_id;sensor_type;location;lat;lon;timestamp;pressure;altitude;pressure_sealevel;temperature;humidity
53546;BME280;39432;51.902;10.844;2024-02-23T00:01:53;96412.16;;;9.46;100.00
53546;BME280;39432;51.902;10.844;2024-02-23T00:04:25;96413.41;;;9.57;100.00
53546;BME280;39432;51.902;10.844;2024-02-23T00:06:55;96424.50;;;9.52;100.00
53546;BME280;39432;51.902;10.844;2024-02-23T00:09:26;96422.28;;;9.45;100.00
53546;BME280;39432;51.902;10.844;2024-02-23T00:11:55;96451.28;;;9.50;100.00
53546;BME280;39432;51.902;10.844;2024-02-23T00:14:25;96456.31;;;9.39;100.00
53546;BME280;39432;51.902;10.844;2024-02-23T00:16:57;96451.00;;;9.43;100.00
53546;BME280;39432;51.902;10.844;2024-02-23T00:19:32;96468.06;;;9.40;100.00
53546;BME280;39432;51.902;10.844;2024-02-23T00:22:02;96461.19;;;9.25;100.00
53546;BME280;39432;51.902;10.844;2024-02-23T00:24:34;96473.88;;;9.30;100.00
53546;BME280;39432;51.902;10.844;2024-02-23T00:27:04;96482.97;;;9.34;100.00
53546;BME280;39432;51.902;10.844;2024-02-23T00:29:34;96501.66;;;9.23;100.00
53546;BME280;39432;51.902;10.844;2024-02-23T00:32:05;96504.72;;;9.04;100.00
53546;BME280;39432;51.902;10.844;2024-02-23T00:34:38;96492.84;;;9.09;100.00
53546;BME280;39432;51.902;10.844;2024-02-23T00:37:08;96498.78;;;9.11;100.00
53546;BME280;39432;51.902;10.844;2024-02-23T00:39:38;96507.66;;;8.90;100.00
53546;BME280;39432;51.902;10.844;2024-02-23T00:42:08;96503.78;;;9.00;100.00
53546;BME280;39432;51.902;10.844;2024-02-23T00:44:38;96513.28;;;8.85;100.00
53546;BME280;39432;51.902;10.844;2024-02-23T00:47:07;96529.00;;;8.80;100.00
53546;BME280;39432;51.902;10.844;2024-02-23T00:49:40;96539.75;;;8.85;100.00
53546;BME280;39432;51.902;10.844;2024-02-23T00:52:10;96546.75;;;8.94;100.00
53546;BME280;39432;51.902;10.844;2024-02-23T00:54:40;96567.78;;;8.94;100.00
53546;BME280;39432;51.902;10.844;2024-02-23T00:57:09;96583.00;;;9.04;100.00
53546;BME280;39432;51.902;10.844;2024-02-23T00:59:39;96588.63;;;8.73;100.00
53546;BME280;39432;51.902;10.844;2024-02-23T01:02:09;96595.03;;;8.77;100.00
53546;BME280;39432;51.902;10.844;2024-02-23T01:04:41;96602.25;;;8.90;100.00
53546;BME280;39432;51.902;10.844;2024-02-23T01:07:11;96601.78;;;8.96;100.00
53546;BME280;39432;51.902;10.844;2024-02-23T01:09:41;96615.72;;;8.95;100.00
53546;BME280;39432;51.902;10.844;2024-02-23T01:12:11;96628.53;;;8.94;100.00
53546;BME280;39432;51.902;10.844;2024-02-23T01:14:41;96641.06;;;8.87;100.00
53546;BME280;39432;51.902;10.844;2024-02-23T01:17:11;96655.34;;;8.92;100.00
53546;BME280;39432;51.902;10.844;2024-02-23T01:19:44;96643.16;;;8.98;100.00
53546;BME280;39432;51.902;10.844;2024-02-23T01:22:13;96642.97;;;8.78;100.00
53546;BME280;39432;51.902;10.844;2024-02-23T01:24:43;96634.81;;;8.95;100.00
53546;BME280;39432;51.902;10.844;2024-02-23T01:27:13;96639.31;;;8.91;100.00
53546;BME280;39432;51.902;10.844;2024-02-23T01:29:43;96630.97;;;8.96;100.00
53546;BME280;39432;51.902;10.844;2024-02-23T01:32:13;96649.41;;;8.90;100.00
53546;BME280;39432;51.902;10.844;2024-02-23T01:34:45;96661.91;;;8.83;100.00
53546;BME280;39432;51.902;10.844;2024-02-23T01:37:15;96657.59;;;8.90;100.00
53546;BME280;39432;51.902;10.844;2024-02-23T01:39:49;96650.50;;;8.89;100.00
53546;BME280;39432;51.902;10.844;2024-02-23T01:42:19;96676.94;;;8.71;100.00
53546;BME280;39432;51.902;10.844;2024-02-23T01:44:50;96679.53;;;8.77;100.00
53546;BME280;39432;51.902;10.844;2024-02-23T01:47:22;96698.44;;;8.64;100.00
53546;BME280;39432;51.902;10.844;2024-02-23T01:49:56;96694.25;;;8.58;100.00
53546;BME280;39432;51.902;10.844;2024-02-23T01:52:27;96710.69;;;8.44;100.00
53546;BME280;39432;51.902;10.844;2024-02-23T01:54:58;96733.63;;;8.43;100.00
53546;BME280;39432;51.902;10.844;2024-02-23T01:57:28;96748.19;;;8.16;100.00
53546;BME280;39432;51.902;10.844;2024-02-23T02:00:16;96766.16;;;8.17;100.00
53546;BME280;39432;51.902;10.844;2024-02-23T02:02:53;96759.81;;;8.00;100.00
53546;BME280;39432;51.902;10.844;2024-02-23T02:05:26;96767.84;;;8.05;100.00
53546;BME280;39432;51.902;10.844;2024-02-23T02:07:56;96756.97;;;8.05;100.00
53546;BME280;39432;51.902;10.844;2024-02-23T02:10:28;96790.41;;;8.05;100.00
53546;BME280;39432;51.902;10.844;2024-02-23T02:13:01;96771.00;;;7.98;100.00
53546;BME280;39432;51.902;10.844;2024-02-23T02:15:32;96779.63;;;7.91;100.00
53546;BME280;39432;51.902;10.844;2024-02-23T02:18:04;96792.66;;;8.03;100.00
53546;BME280;39432;51.902;10.844;2024-02-23T02:20:37;96800.44;;;7.96;100.00
53546;BME280;39432;51.902;10.844;2024-02-23T02:23:10;96805.53;;;7.89;100.00
53546;BME280;39432;51.902;10.844;2024-02-23T02:25:40;96805.88;;;7.96;100.00
53546;BME280;39432;51.902;10.844;2024-02-23T02:28:10;96825.56;;;7.93;100.00
53546;BME280;39432;51.902;10.844;2024-02-23T02:30:39;96828.75;;;7.86;100.00
53546;BME280;39432;51.902;10.844;2024-02-23T02:33:09;96847.38;;;7.79;100.00
53546;BME280;39432;51.902;10.844;2024-02-23T02:35:42;96861.50;;;7.81;100.00
53546;BME280;39432;51.902;10.844;2024-02-23T02:38:12;96868.34;;;7.79;100.00
53546;BME280;39432;51.902;10.844;2024-02-23T02:40:42;96864.94;;;7.73;100.00
53546;BME280;39432;51.902;10.844;2024-02-23T02:43:12;96891.34;;;7.73;100.00
53546;BME280;39432;51.902;10.844;2024-02-23T02:45:42;96887.53;;;7.74;100.00
53546;BME280;39432;51.902;10.844;2024-02-23T02:48:12;96897.53;;;7.64;100.00
53546;BME280;39432;51.902;10.844;2024-02-23T02:50:45;96905.69;;;7.64;100.00
53546;BME280;39432;51.902;10.844;2024-02-23T02:53:18;96917.81;;;7.58;100.00
53546;BME280;39432;51.902;10.844;2024-02-23T02:55:48;96917.09;;;7.53;100.00
53546;BME280;39432;51.902;10.844;2024-02-23T02:58:18;96930.78;;;7.61;100.00
53546;BME280;39432;51.902;10.844;2024-02-23T03:00:47;96939.34;;;7.55;100.00
53546;BME280;39432;51.902;10.844;2024-02-23T03:03:17;96950.03;;;7.51;100.00
53546;BME280;39432;51.902;10.844;2024-02-23T03:05:52;96945.81;;;7.45;100.00
53546;BME280;39432;51.902;10.844;2024-02-23T03:08:22;96952.47;;;7.39;100.00
53546;BME280;39432;51.902;10.844;2024-02-23T03:10:53;96955.59;;;7.32;100.00
53546;BME280;39432;51.902;10.844;2024-02-23T03:13:24;96955.69;;;7.27;100.00
53546;BME280;39432;51.902;10.844;2024-02-23T03:15:53;96966.97;;;7.21;100.00
53546;BME280;39432;51.902;10.844;2024-02-23T03:18:23;96965.34;;;7.20;100.00
53546;BME280;39432;51.902;10.844;2024-02-23T03:20:57;96970.78;;;7.20;100.00
53546;BME280;39432;51.902;10.844;2024-02-23T03:23:26;96976.34;;;7.15;100.00
53546;BME280;39432;51.902;10.844;2024-02-23T03:25:56;96975.41;;;7.05;100.00
53546;BME280;39432;51.902;10.844;2024-02-23T03:28:26;96986.69;;;7.12;100.00
53546;BME280;39432;51.902;10.844;2024-02-23T03:30:56;96996.94;;;7.02;100.00
53546;BME280;39432;51.902;10.844;2024-02-23T03:33:26;96993.50;;;6.96;100.00
53546;BME280;39432;51.902;10.844;2024-02-23T03:35:59;97007.22;;;7.05;100.00
53546;BME280;39432;51.902;10.844;2024-02-23T03:38:29;97006.41;;;7.04;100.00
53546;BME280;39432;51.902;10.844;2024-02-23T03:41:01;96998.94;;;6.96;100.00
53546;BME280;39432;51.902;10.844;2024-02-23T03:43:31;97000.44;;;6.89;100.00
53546;BME280;39432;51.902;10.844;2024-02-23T03:46:02;97010.91;;;6.95;100.00
53546;BME280;39432;51.902;10.844;2024-02-23T03:48:31;97008.41;;;6.99;100.00
53546;BME280;39432;51.902;10.844;2024-02-23T03:51:06;97021.28;;;6.93;100.00
53546;BME280;39432;51.902;10.844;2024-02-23T03:53:37;97023.41;;;6.96;100.00
53546;BME280;39432;51.902;10.844;2024-02-23T03:56:07;97034.34;;;6.91;100.00
53546;BME280;39432;51.902;10.844;2024-02-23T03:58:37;97037.16;;;6.86;100.00
53546;BME280;39432;51.902;10.844;2024-02-23T04:01:07;97047.09;;;6.77;100.00
53546;BME280;39432;51.902;10.844;2024-02-23T04:03:37;97056.88;;;6.78;100.00
53546;BME280;39432;51.902;10.844;2024-02-23T04:06:09;97055.03;;;6.73;100.00
53546;BME280;39432;51.902;10.844;2024-02-23T04:08:39;97046.56;;;6.75;100.00
53546;BME280;39432;51.902;10.844;2024-02-23T04:11:12;97057.38;;;6.80;100.00
53546;BME280;39432;51.902;10.844;2024-02-23T04:13:42;97051.72;;;6.76;100.00
53546;BME280;39432;51.902;10.844;2024-02-23T04:16:15;97063.75;;;6.70;100.00
53546;BME280;39432;51.902;10.844;2024-02-23T04:18:45;97070.28;;;6.69;100.00
53546;BME280;39432;51.902;10.844;2024-02-23T04:21:18;97056.00;;;6.64;100.00
53546;BME280;39432;51.902;10.844;2024-02-23T04:23:48;97074.94;;;6.50;100.00
53546;BME280;39432;51.902;10.844;2024-02-23T04:26:18;97072.16;;;6.36;100.00
53546;BME280;39432;51.902;10.844;2024-02-23T04:28:48;97078.38;;;6.37;100.00
53546;BME280;39432;51.902;10.844;2024-02-23T04:31:18;97078.19;;;6.33;100.00
53546;BME280;39432;51.902;10.844;2024-02-23T04:33:48;97078.19;;;6.33;100.00
53546;BME280;39432;51.902;10.844;2024-02-23T04:36:21;97084.41;;;6.33;100.00
53546;BME280;39432;51.902;10.844;2024-02-23T04:38:51;97093.88;;;6.36;100.00
53546;BME280;39432;51.902;10.844;2024-02-23T04:41:21;97103.84;;;6.22;100.00
53546;BME280;39432;51.902;10.844;2024-02-23T04:43:51;97106.84;;;6.20;100.00
53546;BME280;39432;51.902;10.844;2024-02-23T04:46:30;97120.69;;;6.19;100.00
53546;BME280;39432;51.902;10.844;2024-02-23T04:49:01;97135.50;;;6.07;100.00
53546;BME280;39432;51.902;10.844;2024-02-23T04:51:34;97148.69;;;5.95;100.00
53546;BME280;39432;51.902;10.844;2024-02-23T04:54:04;97144.16;;;6.10;100.00
53546;BME280;39432;51.902;10.844;2024-02-23T04:56:34;97151.22;;;6.11;100.00
53546;BME280;39432;51.902;10.844;2024-02-23T04:59:04;97161.47;;;6.14;100.00
53546;BME280;39432;51.902;10.844;2024-02-23T05:01:35;97169.25;;;6.20;100.00
53546;BME280;39432;51.902;10.844;2024-02-23T05:04:05;97174.00;;;6.10;100.00
53546;BME280;39432;51.902;10.844;2024-02-23T05:06:38;97182.50;;;6.27;100.00
53546;BME280;39432;51.902;10.844;2024-02-23T05:09:09;97169.84;;;6.17;100.00
53546;BME280;39432;51.902;10.844;2024-02-23T05:11:39;97171.88;;;6.06;100.00
53546;BME280;39432;51.902;10.844;2024-02-23T05:14:10;97174.59;;;6.06;100.00
53546;BME280;39432;51.902;10.844;2024-02-23T05:16:40;97179.56;;;5.99;100.00
53546;BME280;39432;51.902;10.844;2024-02-23T05:19:09;97186.91;;;5.99;100.00
53546;BME280;39432;51.902;10.844;2024-02-23T05:21:42;97185.56;;;5.96;100.00
53546;BME280;39432;51.902;10.844;2024-02-23T05:24:12;97192.88;;;6.20;100.00
53546;BME280;39432;51.902;10.844;2024-02-23T05:26:42;97192.97;;;6.57;100.00
53546;BME280;39432;51.902;10.844;2024-02-23T05:29:12;97199.59;;;6.70;100.00
53546;BME280;39432;51.902;10.844;2024-02-23T05:31:46;97220.28;;;5.99;100.00
53546;BME280;39432;51.902;10.844;2024-02-23T05:34:16;97217.09;;;6.40;100.00
53546;BME280;39432;51.902;10.844;2024-02-23T05:36:50;97208.50;;;6.76;100.00
53546;BME280;39432;51.902;10.844;2024-02-23T05:39:20;97223.78;;;6.48;100.00
53546;BME280;39432;51.902;10.844;2024-02-23T05:41:50;97238.22;;;5.95;100.00
53546;BME280;39432;51.902;10.844;2024-02-23T05:44:20;97233.56;;;6.49;100.00
53546;BME280;39432;51.902;10.844;2024-02-23T05:46:50;97236.50;;;6.04;100.00
53546;BME280;39432;51.902;10.844;2024-02-23T05:49:19;97249.34;;;5.60;100.00
53546;BME280;39432;51.902;10.844;2024-02-23T05:51:52;97244.34;;;5.77;100.00
53546;BME280;39432;51.902;10.844;2024-02-23T05:54:22;97245.22;;;5.67;100.00
53546;BME280;39432;51.902;10.844;2024-02-23T05:56:52;97250.31;;;5.74;100.00
53546;BME280;39432;51.902;10.844;2024-02-23T05:59:21;97249.63;;;5.87;100.00
53546;BME280;39432;51.902;10.844;2024-02-23T06:01:51;97261.03;;;5.94;100.00
53546;BME280;39432;51.902;10.844;2024-02-23T06:04:24;97254.50;;;5.95;100.00
53546;BME280;39432;51.902;10.844;2024-02-23T06:06:57;97257.94;;;5.72;100.00
53546;BME280;39432;51.902;10.844;2024-02-23T06:09:27;97243.28;;;5.73;100.00
53546;BME280;39432;51.902;10.844;2024-02-23T06:11:57;97255.28;;;5.67;100.00
53546;BME280;39432;51.902;10.844;2024-02-23T06:14:27;97255.50;;;5.70;100.00
53546;BME280;39432;51.902;10.844;2024-02-23T06:16:57;97271.47;;;5.77;100.00
53546;BME280;39432;51.902;10.844;2024-02-23T06:19:27;97272.53;;;5.76;100.00
53546;BME280;39432;51.902;10.844;2024-02-23T06:21:59;97283.88;;;5.83;100.00
53546;BME280;39432;51.902;10.844;2024-02-23T06:24:29;97282.56;;;6.10;100.00
53546;BME280;39432;51.902;10.844;2024-02-23T06:26:59;97285.41;;;5.99;100.00
53546;BME280;39432;51.902;10.844;2024-02-23T06:29:30;97282.72;;;5.94;100.00
53546;BME280;39432;51.902;10.844;2024-02-23T06:32:00;97283.16;;;5.72;100.00
53546;BME280;39432;51.902;10.844;2024-02-23T06:34:31;97285.88;;;6.06;100.00
53546;BME280;39432;51.902;10.844;2024-02-23T06:37:04;97294.31;;;6.05;100.00
53546;BME280;39432;51.902;10.844;2024-02-23T06:39:33;97293.59;;;5.94;100.00
53546;BME280;39432;51.902;10.844;2024-02-23T06:42:04;97294.69;;;5.88;100.00
53546;BME280;39432;51.902;10.844;2024-02-23T06:44:34;97306.63;;;5.87;100.00
53546;BME280;39432;51.902;10.844;2024-02-23T06:47:04;97299.28;;;5.88;100.00
53546;BME280;39432;51.902;10.844;2024-02-23T06:49:34;97290.50;;;5.72;100.00
53546;BME280;39432;51.902;10.844;2024-02-23T06:52:06;97289.34;;;5.78;100.00
53546;BME280;39432;51.902;10.844;2024-02-23T06:54:36;97297.78;;;6.11;100.00
53546;BME280;39432;51.902;10.844;2024-02-23T06:57:06;97305.84;;;5.81;100.00
53546;BME280;39432;51.902;10.844;2024-02-23T06:59:36;97313.38;;;5.95;100.00
53546;BME280;39432;51.902;10.844;2024-02-23T07:02:06;97320.97;;;5.93;100.00
53546;BME280;39432;51.902;10.844;2024-02-23T07:04:36;97312.38;;;6.15;100.00
53546;BME280;39432;51.902;10.844;2024-02-23T07:07:09;97308.63;;;6.11;100.00
53546;BME280;39432;51.902;10.844;2024-02-23T07:09:39;97314.25;;;6.48;100.00
53546;BME280;39432;51.902;10.844;2024-02-23T07:12:08;97313.44;;;6.72;100.00
53546;BME280;39432;51.902;10.844;2024-02-23T07:14:41;97322.34;;;6.24;100.00
53546;BME280;39432;51.902;10.844;2024-02-23T07:17:11;97318.84;;;6.48;100.00
53546;BME280;39432;51.902;10.844;2024-02-23T07:19:41;97319.44;;;6.45;100.00
53546;BME280;39432;51.902;10.844;2024-02-23T07:22:14;97322.19;;;6.64;100.00
53546;BME280;39432;51.902;10.844;2024-02-23T07:24:45;97326.59;;;6.83;100.00
53546;BME280;39432;51.902;10.844;2024-02-23T07:27:16;97329.22;;;7.12;100.00
53546;BME280;39432;51.902;10.844;2024-02-23T07:29:46;97341.28;;;7.06;100.00
53546;BME280;39432;51.902;10.844;2024-02-23T07:32:16;97341.09;;;6.74;100.00
53546;BME280;39432;51.902;10.844;2024-02-23T07:34:46;97346.50;;;6.79;100.00
53546;BME280;39432;51.902;10.844;2024-02-23T07:37:19;97356.41;;;7.12;100.00
53546;BME280;39432;51.902;10.844;2024-02-23T07:39:49;97366.97;;;7.38;100.00
53546;BME280;39432;51.902;10.844;2024-02-23T07:42:19;97357.56;;;7.68;100.00
53546;BME280;39432;51.902;10.844;2024-02-23T07:44:49;97373.75;;;7.59;100.00
53546;BME280;39432;51.902;10.844;2024-02-23T07:47:19;97370.25;;;7.35;100.00
53546;BME280;39432;51.902;10.844;2024-02-23T07:49:49;97372.03;;;7.63;100.00
53546;BME280;39432;51.902;10.844;2024-02-23T07:52:21;97377.97;;;7.28;100.00
53546;BME280;39432;51.902;10.844;2024-02-23T07:54:52;97388.06;;;7.46;100.00
53546;BME280;39432;51.902;10.844;2024-02-23T07:57:22;97384.09;;;7.57;100.00
53546;BME280;39432;51.902;10.844;2024-02-23T07:59:52;97383.44;;;7.84;100.00
53546;BME280;39432;51.902;10.844;2024-02-23T08:02:22;97391.81;;;7.07;100.00
53546;BME280;39432;51.902;10.844;2024-02-23T08:04:52;97389.19;;;7.45;100.00
53546;BME280;39432;51.902;10.844;2024-02-23T08:07:24;97400.72;;;7.13;100.00
53546;BME280;39432;51.902;10.844;2024-02-23T08:09:55;97403.75;;;7.11;100.00
53546;BME280;39432;51.902;10.844;2024-02-23T08:12:26;97409.28;;;7.01;100.00
53546;BME280;39432;51.902;10.844;2024-02-23T08:14:56;97409.75;;;7.08;100.00
53546;BME280;39432;51.902;10.844;2024-02-23T08:17:25;97407.69;;;7.00;100.00
53546;BME280;39432;51.902;10.844;2024-02-23T08:19:55;97396.91;;;7.38;100.00
53546;BME280;39432;51.902;10.844;2024-02-23T08:22:28;97400.50;;;7.09;100.00
53546;BME280;39432;51.902;10.844;2024-02-23T08:24:58;97393.44;;;7.08;100.00
53546;BME280;39432;51.902;10.844;2024-02-23T08:27:29;97382.56;;;7.08;100.00
53546;BME280;39432;51.902;10.844;2024-02-23T08:29:59;97390.16;;;7.11;100.00
53546;BME280;39432;51.902;10.844;2024-02-23T08:32:29;97383.72;;;7.02;100.00
53546;BME280;39432;51.902;10.844;2024-02-23T08:34:59;97390.13;;;7.35;100.00
53546;BME280;39432;51.902;10.844;2024-02-23T08:37:32;97382.50;;;7.13;100.00
53546;BME280;39432;51.902;10.844;2024-02-23T08:40:02;97377.13;;;7.08;100.00
53546;BME280;39432;51.902;10.844;2024-02-23T08:42:33;97398.31;;;7.11;100.00
53546;BME280;39432;51.902;10.844;2024-02-23T08:45:04;97395.75;;;6.96;100.00
53546;BME280;39432;51.902;10.844;2024-02-23T08:47:34;97405.47;;;7.02;100.00
53546;BME280;39432;51.902;10.844;2024-02-23T08:50:06;97409.19;;;7.11;100.00
53546;BME280;39432;51.902;10.844;2024-02-23T08:52:38;97398.34;;;7.06;100.00
53546;BME280;39432;51.902;10.844;2024-02-23T08:55:08;97406.88;;;7.00;100.00
53546;BME280;39432;51.902;10.844;2024-02-23T08:57:38;97407.97;;;6.99;100.00
53546;BME280;39432;51.902;10.844;2024-02-23T09:00:10;97403.16;;;7.15;100.00
53546;BME280;39432;51.902;10.844;2024-02-23T09:02:44;97399.97;;;7.07;100.00
53546;BME280;39432;51.902;10.844;2024-02-23T09:05:14;97396.09;;;6.90;100.00
53546;BME280;39432;51.902;10.844;2024-02-23T09:07:47;97400.38;;;7.20;100.00
53546;BME280;39432;51.902;10.844;2024-02-23T09:10:17;97392.41;;;7.04;100.00
53546;BME280;39432;51.902;10.844;2024-02-23T09:12:47;97395.13;;;7.04;100.00
53546;BME280;39432;51.902;10.844;2024-02-23T09:15:17;97382.44;;;7.19;100.00
53546;BME280;39432;51.902;10.844;2024-02-23T09:17:47;97382.00;;;7.11;100.00
53546;BME280;39432;51.902;10.844;2024-02-23T09:20:17;97378.72;;;7.33;100.00
53546;BME280;39432;51.902;10.844;2024-02-23T09:22:49;97387.19;;;7.32;100.00
53546;BME280;39432;51.902;10.844;2024-02-23T09:25:19;97378.91;;;7.42;100.00
53546;BME280;39432;51.902;10.844;2024-02-23T09:27:49;97381.00;;;7.26;100.00
53546;BME280;39432;51.902;10.844;2024-02-23T09:30:19;97378.28;;;7.26;100.00
53546;BME280;39432;51.902;10.844;2024-02-23T09:32:49;97380.66;;;7.52;100.00
53546;BME280;39432;51.902;10.844;2024-02-23T09:35:19;97387.06;;;7.42;100.00
53546;BME280;39432;51.902;10.844;2024-02-23T09:37:52;97377.78;;;7.43;100.00
53546;BME280;39432;51.902;10.844;2024-02-23T09:40:22;97386.59;;;7.35;100.00
53546;BME280;39432;51.902;10.844;2024-02-23T09:42:55;97380.22;;;7.63;100.00
53546;BME280;39432;51.902;10.844;2024-02-23T09:45:26;97378.75;;;7.71;100.00
53546;BME280;39432;51.902;10.844;2024-02-23T09:47:57;97374.19;;;7.85;100.00
53546;BME280;39432;51.902;10.844;2024-02-23T09:50:28;97376.16;;;7.80;100.00
53546;BME280;39432;51.902;10.844;2024-02-23T09:53:04;97372.03;;;8.01;100.00
53546;BME280;39432;51.902;10.844;2024-02-23T09:55:35;97369.13;;;7.79;100.00
53546;BME280;39432;51.902;10.844;2024-02-23T09:58:06;97379.84;;;7.89;100.00
53546;BME280;39432;51.902;10.844;2024-02-23T10:00:38;97376.41;;;8.02;100.00
53546;BME280;39432;51.902;10.844;2024-02-23T10:03:08;97378.59;;;8.19;100.00
53546;BME280;39432;51.902;10.844;2024-02-23T10:05:38;97377.94;;;8.08;100.00
53546;BME280;39432;51.902;10.844;2024-02-23T10:08:12;97385.66;;;8.34;100.00
53546;BME280;39432;51.902;10.844;2024-02-23T10:10:45;97383.56;;;8.63;100.00
53546;BME280;39432;51.902;10.844;2024-02-23T10:13:18;97389.03;;;8.63;100.00
53546;BME280;39432;51.902;10.844;2024-02-23T10:15:48;97399.53;;;8.84;100.00
53546;BME280;39432;51.902;10.844;2024-02-23T10:18:38;97414.81;;;9.26;100.00
53546;BME280;39432;51.902;10.844;2024-02-23T10:21:08;97413.69;;;8.86;100.00
53546;BME280;39432;51.902;10.844;2024-02-23T10:23:41;97405.44;;;8.91;100.00
53546;BME280;39432;51.902;10.844;2024-02-23T10:26:11;97419.16;;;9.00;100.00
53546;BME280;39432;51.902;10.844;2024-02-23T10:28:46;97401.94;;;8.71;100.00
53546;BME280;39432;51.902;10.844;2024-02-23T10:31:18;97405.81;;;8.98;100.00
53546;BME280;39432;51.902;10.844;2024-02-23T10:33:50;97409.72;;;8.78;100.00
53546;BME280;39432;51.902;10.844;2024-02-23T10:36:20;97422.50;;;9.10;100.00
53546;BME280;39432;51.902;10.844;2024-02-23T10:38:56;97423.00;;;8.98;100.00
53546;BME280;39432;51.902;10.844;2024-02-23T10:41:33;97433.13;;;9.26;100.00
53546;BME280;39432;51.902;10.844;2024-02-23T10:44:05;97430.28;;;9.31;100.00
53546;BME280;39432;51.902;10.844;2024-02-23T10:46:35;97429.47;;;9.03;99.68
53546;BME280;39432;51.902;10.844;2024-02-23T10:49:08;97437.50;;;8.80;99.25
53546;BME280;39432;51.902;10.844;2024-02-23T10:51:39;97432.63;;;8.63;100.00
53546;BME280;39432;51.902;10.844;2024-02-23T10:54:13;97439.13;;;8.95;100.00
53546;BME280;39432;51.902;10.844;2024-02-23T10:56:46;97442.31;;;9.57;99.19
53546;BME280;39432;51.902;10.844;2024-02-23T10:59:16;97451.38;;;9.66;96.99
53546;BME280;39432;51.902;10.844;2024-02-23T11:01:51;97452.72;;;9.14;97.60
53546;BME280;39432;51.902;10.844;2024-02-23T11:04:25;97455.53;;;9.50;99.73
53546;BME280;39432;51.902;10.844;2024-02-23T11:06:55;97460.59;;;9.70;98.28
53546;BME280;39432;51.902;10.844;2024-02-23T11:09:35;97469.72;;;9.52;99.42
53546;BME280;39432;51.902;10.844;2024-02-23T11:12:05;97460.00;;;9.60;97.77
53546;BME280;39432;51.902;10.844;2024-02-23T11:14:38;97464.66;;;9.45;99.48
53546;BME280;39432;51.902;10.844;2024-02-23T11:17:17;97459.81;;;9.29;100.00
53546;BME280;39432;51.902;10.844;2024-02-23T11:19:49;97453.13;;;9.07;100.00
53546;BME280;39432;51.902;10.844;2024-02-23T11:22:24;97455.03;;;8.60;100.00
53546;BME280;39432;51.902;10.844;2024-02-23T11:25:08;97457.88;;;8.69;100.00
53546;BME280;39432;51.902;10.844;2024-02-23T11:27:38;97465.59;;;8.81;100.00
53546;BME280;39432;51.902;10.844;2024-02-23T11:30:11;97460.72;;;8.07;100.00
53546;BME280;39432;51.902;10.844;2024-02-23T11:32:44;97463.50;;;8.59;100.00
53546;BME280;39432;51.902;10.844;2024-02-23T11:35:15;97461.91;;;8.71;100.00
53546;BME280;39432;51.902;10.844;2024-02-23T11:37:47;97463.88;;;8.52;100.00
53546;BME280;39432;51.902;10.844;2024-02-23T11:40:22;97458.44;;;8.14;100.00
53546;BME280;39432;51.902;10.844;2024-02-23T11:42:51;97452.13;;;8.38;100.00
53546;BME280;39432;51.902;10.844;2024-02-23T11:45:22;97453.44;;;8.22;100.00
53546;BME280;39432;51.902;10.844;2024-02-23T11:47:52;97457.19;;;8.26;100.00
53546;BME280;39432;51.902;10.844;2024-02-23T11:50:22;97451.19;;;8.24;100.00
53546;BME280;39432;51.902;10.844;2024-02-23T11:52:51;97449.94;;;8.35;100.00
53546;BME280;39432;51.902;10.844;2024-02-23T11:55:26;97453.75;;;8.71;100.00
53546;BME280;39432;51.902;10.844;2024-02-23T11:57:56;97459.03;;;8.11;100.00
53546;BME280;39432;51.902;10.844;2024-02-23T12:00:36;97459.19;;;8.20;100.00
53546;BME280;39432;51.902;10.844;2024-02-23T12:03:06;97460.06;;;8.53;100.00
53546;BME280;39432;51.902;10.844;2024-02-23T12:05:37;97453.50;;;9.01;100.00
53546;BME280;39432;51.902;10.844;2024-02-23T12:08:07;97461.63;;;9.19;100.00
53546;BME280;39432;51.902;10.844;2024-02-23T12:10:39;97479.78;;;8.45;100.00
53546;BME280;39432;51.902;10.844;2024-02-23T12:13:09;97460.00;;;9.18;100.00
53546;BME280;39432;51.902;10.844;2024-02-23T12:15:39;97468.63;;;8.93;100.00
53546;BME280;39432;51.902;10.844;2024-02-23T12:18:10;97471.22;;;8.70;100.00
53546;BME280;39432;51.902;10.844;2024-02-23T12:20:41;97464.31;;;8.59;100.00
53546;BME280;39432;51.902;10.844;2024-02-23T12:23:11;97469.75;;;8.59;100.00
53546;BME280;39432;51.902;10.844;2024-02-23T12:25:54;97456.53;;;8.66;100.00
53546;BME280;39432;51.902;10.844;2024-02-23T12:28:26;97463.09;;;8.98;100.00
53546;BME280;39432;51.902;10.844;2024-02-23T12:30:59;97464.03;;;9.07;100.00
53546;BME280;39432;51.902;10.844;2024-02-23T12:33:30;97468.72;;;8.88;100.00
53546;BME280;39432;51.902;10.844;2024-02-23T12:36:03;97462.41;;;9.20;100.00
53546;BME280;39432;51.902;10.844;2024-02-23T12:38:33;97467.69;;;8.84;100.00
53546;BME280;39432;51.902;10.844;2024-02-23T12:41:06;97464.03;;;9.07;99.41
53546;BME280;39432;51.902;10.844;2024-02-23T12:43:36;97468.31;;;8.94;100.00
53546;BME280;39432;51.902;10.844;2024-02-23T12:46:09;97460.19;;;9.08;100.00
53546;BME280;39432;51.902;10.844;2024-02-23T12:48:41;97466.88;;;9.30;100.00
53546;BME280;39432;51.902;10.844;2024-02-23T12:51:11;97457.94;;;8.96;97.88
53546;BME280;39432;51.902;10.844;2024-02-23T12:53:42;97468.28;;;9.27;99.58
53546;BME280;39432;51.902;10.844;2024-02-23T12:56:15;97469.47;;;9.07;100.00
53546;BME280;39432;51.902;10.844;2024-02-23T12:58:45;97476.97;;;8.50;100.00
53546;BME280;39432;51.902;10.844;2024-02-23T13:01:15;97456.75;;;8.37;100.00
53546;BME280;39432;51.902;10.844;2024-02-23T13:03:45;97470.72;;;8.82;100.00
53546;BME280;39432;51.902;10.844;2024-02-23T13:06:15;97465.00;;;8.97;100.00
53546;BME280;39432;51.902;10.844;2024-02-23T13:08:45;97464.84;;;9.49;100.00
53546;BME280;39432;51.902;10.844;2024-02-23T13:11:17;97458.97;;;9.14;100.00